EWG53G ENVA-EDDH
Flight info
| Callsign | EWG53G |
|---|---|
| Flight time | N/A |
| Altitude | 37000 |
| Route | UTUNA DCT ALASA M852 EKERN/N0342F230 T905 BOGMU BOGMU3S |
| Aircraft | A20N/M-SDE2E3FGHIRWXY/LB1 |
Departure
| Time | 2026-04-29 12:44 |
|---|---|
| Airport | Trondheim Airport, Værnes (ENVA) |
Arrival
| Time | N/A |
|---|---|
| Airport | Hamburg Helmut Schmidt Airport (EDDH) |
| Time | Latitude | Longitude | Altitude | Speed | Heading |
|---|---|---|---|---|---|
| 2026-04-29 12:31 | 63.45506 | 10.91659 | 50 ft | 0 kts | 180° |
| 2026-04-29 12:38 | 63.45517 | 10.91658 | 50 ft | 2 kts | 178° |
| 2026-04-29 12:39 | 63.45533 | 10.91657 | 48 ft | 2 kts | 178° |
| 2026-04-29 12:39 | 63.45550 | 10.91656 | 49 ft | 2 kts | 176° |
| 2026-04-29 12:39 | 63.45566 | 10.91652 | 50 ft | 2 kts | 172° |
| 2026-04-29 12:39 | 63.45582 | 10.91644 | 45 ft | 2 kts | 159° |
| 2026-04-29 12:40 | 63.45594 | 10.91622 | 48 ft | 2 kts | 110° |
| 2026-04-29 12:40 | 63.45596 | 10.91603 | 44 ft | 0 kts | 93° |
| 2026-04-29 12:40 | 63.45596 | 10.91602 | 44 ft | 0 kts | 93° |
| 2026-04-29 12:41 | 63.45596 | 10.91607 | 44 ft | 1 kts | 93° |
| 2026-04-29 12:41 | 63.45596 | 10.91635 | 47 ft | 6 kts | 90° |
| 2026-04-29 12:41 | 63.45596 | 10.91862 | 52 ft | 23 kts | 90° |
| 2026-04-29 12:42 | 63.45595 | 10.92324 | 54 ft | 33 kts | 90° |
| 2026-04-29 12:42 | 63.45594 | 10.92806 | 56 ft | 23 kts | 90° |
| 2026-04-29 12:42 | 63.45593 | 10.93161 | 58 ft | 23 kts | 90° |
| 2026-04-29 12:42 | 63.45592 | 10.93508 | 61 ft | 22 kts | 90° |
| 2026-04-29 12:43 | 63.45605 | 10.93824 | 64 ft | 18 kts | 64° |
| 2026-04-29 12:43 | 63.45680 | 10.94023 | 70 ft | 16 kts | 44° |
| 2026-04-29 12:43 | 63.45743 | 10.94074 | 63 ft | 6 kts | 332° |
| 2026-04-29 12:43 | 63.45756 | 10.94007 | 69 ft | 4 kts | 276° |
| 2026-04-29 12:44 | 63.45757 | 10.93517 | 67 ft | 73 kts | 270° |
| 2026-04-29 12:44 | 63.45757 | 10.91775 | 125 ft | 142 kts | 268° |
| 2026-04-29 12:44 | 63.45729 | 10.89534 | 912 ft | 147 kts | 266° |
| 2026-04-29 12:44 | 63.45655 | 10.87179 | 1870 ft | 157 kts | 266° |
| 2026-04-29 12:45 | 63.45612 | 10.84604 | 2727 ft | 179 kts | 271° |
| 2026-04-29 12:45 | 63.45575 | 10.81597 | 3418 ft | 205 kts | 269° |
| 2026-04-29 12:45 | 63.45516 | 10.78591 | 4243 ft | 218 kts | 269° |
| 2026-04-29 12:45 | 63.45460 | 10.75142 | 5136 ft | 231 kts | 270° |
| 2026-04-29 12:46 | 63.45421 | 10.71487 | 5890 ft | 240 kts | 271° |
| 2026-04-29 12:46 | 63.45393 | 10.67748 | 6302 ft | 241 kts | 272° |
| 2026-04-29 12:46 | 63.45374 | 10.63981 | 6404 ft | 242 kts | 272° |
| 2026-04-29 12:46 | 63.45364 | 10.60191 | 6401 ft | 245 kts | 272° |
| 2026-04-29 12:47 | 63.45347 | 10.56367 | 6400 ft | 246 kts | 270° |
| 2026-04-29 12:47 | 63.45056 | 10.52588 | 6403 ft | 253 kts | 246° |
| 2026-04-29 12:47 | 63.43604 | 10.50197 | 6851 ft | 281 kts | 195° |
| 2026-04-29 12:47 | 63.41617 | 10.50680 | 7881 ft | 295 kts | 169° |
| 2026-04-29 12:48 | 63.41039 | 10.50998 | 8183 ft | 296 kts | 171° |
| 2026-04-29 12:48 | 63.39032 | 10.51872 | 9233 ft | 304 kts | 170° |
| 2026-04-29 12:48 | 63.37150 | 10.54109 | 10194 ft | 318 kts | 131° |
| 2026-04-29 12:48 | 63.36217 | 10.58543 | 10895 ft | 325 kts | 91° |
| 2026-04-29 12:49 | 63.36566 | 10.63492 | 11523 ft | 327 kts | 66° |
| 2026-04-29 12:49 | 63.37158 | 10.68507 | 12428 ft | 339 kts | 72° |
| 2026-04-29 12:49 | 63.37530 | 10.73753 | 13451 ft | 348 kts | 77° |
| 2026-04-29 12:49 | 63.37745 | 10.79116 | 14444 ft | 354 kts | 79° |
| 2026-04-29 12:50 | 63.37786 | 10.84671 | 15318 ft | 366 kts | 90° |
| 2026-04-29 12:50 | 63.37195 | 10.90290 | 16172 ft | 381 kts | 106° |
| 2026-04-29 12:50 | 63.35940 | 10.95602 | 17026 ft | 393 kts | 122° |
| 2026-04-29 12:50 | 63.34100 | 11.00184 | 17853 ft | 401 kts | 138° |
| 2026-04-29 12:51 | 63.31790 | 11.03717 | 18670 ft | 405 kts | 154° |
| 2026-04-29 12:51 | 63.29187 | 11.05947 | 19372 ft | 405 kts | 168° |
| 2026-04-29 12:51 | 63.26406 | 11.06800 | 20105 ft | 403 kts | 183° |
| 2026-04-29 12:51 | 63.23629 | 11.06219 | 20812 ft | 400 kts | 198° |
| 2026-04-29 12:52 | 63.21017 | 11.04258 | 21497 ft | 394 kts | 212° |
| 2026-04-29 12:52 | 63.18693 | 11.01106 | 22195 ft | 390 kts | 223° |
| 2026-04-29 12:52 | 63.16501 | 10.97519 | 22869 ft | 394 kts | 222° |
| 2026-04-29 12:52 | 63.14109 | 10.94513 | 23507 ft | 408 kts | 209° |
| 2026-04-29 12:53 | 63.11356 | 10.92481 | 24084 ft | 416 kts | 203° |
| 2026-04-29 12:53 | 63.08759 | 10.89980 | 24575 ft | 410 kts | 217° |
| 2026-04-29 12:53 | 63.06473 | 10.86300 | 25098 ft | 402 kts | 228° |
| 2026-04-29 12:53 | 63.04253 | 10.82418 | 25607 ft | 415 kts | 214° |
| 2026-04-29 12:54 | 63.01439 | 10.80539 | 26047 ft | 431 kts | 194° |
| 2026-04-29 12:54 | 62.98465 | 10.79426 | 26502 ft | 434 kts | 194° |
| 2026-04-29 12:54 | 62.95536 | 10.78199 | 26963 ft | 434 kts | 196° |
| 2026-04-29 12:54 | 62.92584 | 10.76762 | 27430 ft | 436 kts | 198° |
| 2026-04-29 12:55 | 62.89624 | 10.75171 | 27859 ft | 438 kts | 199° |
| 2026-04-29 12:55 | 62.86672 | 10.73495 | 28284 ft | 440 kts | 199° |
| 2026-04-29 12:55 | 62.83707 | 10.71758 | 28704 ft | 442 kts | 198° |
| 2026-04-29 12:55 | 62.80633 | 10.70743 | 29097 ft | 450 kts | 187° |
| 2026-04-29 12:56 | 62.77488 | 10.70488 | 29470 ft | 454 kts | 184° |
| 2026-04-29 12:56 | 62.74308 | 10.70485 | 29854 ft | 456 kts | 183° |
| 2026-04-29 12:56 | 62.71124 | 10.70486 | 30199 ft | 458 kts | 183° |
| 2026-04-29 12:56 | 62.67917 | 10.70388 | 30457 ft | 462 kts | 184° |
| 2026-04-29 12:57 | 62.66869 | 10.70332 | 30554 ft | 463 kts | 184° |
| 2026-04-29 12:57 | 62.63797 | 10.70106 | 30818 ft | 465 kts | 185° |
| 2026-04-29 12:57 | 62.60561 | 10.69794 | 31157 ft | 465 kts | 186° |
| 2026-04-29 12:57 | 62.57329 | 10.69432 | 31545 ft | 464 kts | 186° |
| 2026-04-29 12:58 | 62.54106 | 10.69039 | 31920 ft | 463 kts | 186° |
| 2026-04-29 12:58 | 62.50890 | 10.68631 | 32290 ft | 462 kts | 186° |
| 2026-04-29 12:58 | 62.47686 | 10.68219 | 32660 ft | 461 kts | 186° |
| 2026-04-29 12:58 | 62.44515 | 10.67813 | 33003 ft | 460 kts | 186° |
| 2026-04-29 12:59 | 62.41318 | 10.67407 | 33328 ft | 460 kts | 186° |
| 2026-04-29 12:59 | 62.38124 | 10.67007 | 33653 ft | 460 kts | 186° |
| 2026-04-29 12:59 | 62.34927 | 10.66612 | 33983 ft | 459 kts | 186° |
| 2026-04-29 12:59 | 62.31727 | 10.66221 | 34328 ft | 458 kts | 186° |
| 2026-04-29 13:00 | 62.28541 | 10.65833 | 34615 ft | 458 kts | 186° |
| 2026-04-29 13:00 | 62.25353 | 10.65446 | 34861 ft | 458 kts | 186° |
| 2026-04-29 13:00 | 62.22213 | 10.65066 | 35102 ft | 458 kts | 186° |
| 2026-04-29 13:00 | 62.19019 | 10.64684 | 35355 ft | 458 kts | 186° |
| 2026-04-29 13:01 | 62.15831 | 10.64305 | 35609 ft | 458 kts | 186° |
| 2026-04-29 13:01 | 62.12640 | 10.63928 | 35863 ft | 458 kts | 186° |
| 2026-04-29 13:01 | 62.09457 | 10.63552 | 36082 ft | 458 kts | 185° |
| 2026-04-29 13:01 | 62.06267 | 10.63177 | 36287 ft | 459 kts | 185° |
| 2026-04-29 13:02 | 62.03074 | 10.62804 | 36516 ft | 459 kts | 185° |
| 2026-04-29 13:02 | 61.99914 | 10.62438 | 36750 ft | 459 kts | 185° |
| 2026-04-29 13:02 | 61.96732 | 10.62069 | 36973 ft | 459 kts | 185° |
| 2026-04-29 13:02 | 61.93539 | 10.61700 | 37180 ft | 459 kts | 185° |
| 2026-04-29 13:03 | 61.90345 | 10.61331 | 37366 ft | 459 kts | 185° |
| 2026-04-29 13:03 | 61.86231 | 10.60861 | 37414 ft | 460 kts | 185° |
| 2026-04-29 13:04 | 61.79829 | 10.60144 | 37410 ft | 459 kts | 185° |
| 2026-04-29 13:04 | 61.73445 | 10.59438 | 37411 ft | 459 kts | 185° |
| 2026-04-29 13:05 | 61.67099 | 10.58745 | 37408 ft | 459 kts | 185° |
| 2026-04-29 13:05 | 61.60713 | 10.58050 | 37402 ft | 459 kts | 185° |
| 2026-04-29 13:06 | 61.54312 | 10.57358 | 37402 ft | 459 kts | 185° |
| 2026-04-29 13:06 | 61.47972 | 10.56675 | 37395 ft | 459 kts | 184° |
| 2026-04-29 13:07 | 61.41590 | 10.55991 | 37396 ft | 459 kts | 184° |
| 2026-04-29 13:07 | 61.35210 | 10.55307 | 37409 ft | 459 kts | 184° |
| 2026-04-29 13:08 | 61.28806 | 10.54616 | 37394 ft | 461 kts | 184° |
| 2026-04-29 13:08 | 61.22422 | 10.53940 | 37383 ft | 462 kts | 184° |
| 2026-04-29 13:09 | 61.15998 | 10.53267 | 37380 ft | 462 kts | 184° |
| 2026-04-29 13:09 | 61.09576 | 10.52594 | 37380 ft | 462 kts | 184° |
| 2026-04-29 13:10 | 61.03146 | 10.51921 | 37377 ft | 462 kts | 184° |
| 2026-04-29 13:10 | 60.96758 | 10.51253 | 37376 ft | 462 kts | 184° |
| 2026-04-29 13:11 | 60.92369 | 10.50798 | 37365 ft | 462 kts | 184° |
| 2026-04-29 13:11 | 60.85930 | 10.50132 | 37376 ft | 461 kts | 184° |
| 2026-04-29 13:12 | 60.80608 | 10.49583 | 37370 ft | 461 kts | 184° |
| 2026-04-29 13:12 | 60.75438 | 10.49050 | 37373 ft | 461 kts | 184° |
| 2026-04-29 13:13 | 60.70109 | 10.48503 | 37373 ft | 461 kts | 184° |
| 2026-04-29 13:13 | 60.63689 | 10.47846 | 37373 ft | 461 kts | 184° |
| 2026-04-29 13:14 | 60.57282 | 10.47195 | 37373 ft | 461 kts | 183° |
| 2026-04-29 13:14 | 60.50874 | 10.46545 | 37373 ft | 461 kts | 183° |
| 2026-04-29 13:15 | 60.44497 | 10.45901 | 37381 ft | 460 kts | 183° |
| 2026-04-29 13:15 | 60.38063 | 10.45254 | 37379 ft | 465 kts | 183° |
| 2026-04-29 13:16 | 60.31533 | 10.44626 | 37378 ft | 475 kts | 182° |
| 2026-04-29 13:16 | 60.24905 | 10.44026 | 37377 ft | 484 kts | 182° |
| 2026-04-29 13:17 | 60.18078 | 10.43424 | 37381 ft | 493 kts | 182° |
| 2026-04-29 13:17 | 60.11149 | 10.42814 | 37388 ft | 501 kts | 182° |
| 2026-04-29 13:18 | 60.04203 | 10.42190 | 37382 ft | 501 kts | 182° |
| 2026-04-29 13:18 | 59.97225 | 10.41525 | 37395 ft | 501 kts | 182° |
| 2026-04-29 13:19 | 59.90241 | 10.40842 | 37397 ft | 501 kts | 182° |
| 2026-04-29 13:19 | 59.83312 | 10.40162 | 37398 ft | 501 kts | 182° |
| 2026-04-29 13:20 | 59.76332 | 10.39483 | 37394 ft | 501 kts | 182° |
| 2026-04-29 13:20 | 59.69361 | 10.38810 | 37400 ft | 501 kts | 182° |
| 2026-04-29 13:21 | 59.62426 | 10.38143 | 37412 ft | 501 kts | 182° |
| 2026-04-29 13:21 | 59.55443 | 10.37473 | 37416 ft | 501 kts | 182° |
| 2026-04-29 13:22 | 59.48478 | 10.36809 | 37422 ft | 501 kts | 182° |
| 2026-04-29 13:22 | 59.41513 | 10.36150 | 37424 ft | 500 kts | 182° |
| 2026-04-29 13:23 | 59.34597 | 10.35496 | 37422 ft | 500 kts | 182° |
| 2026-04-29 13:23 | 59.27635 | 10.34837 | 37483 ft | 500 kts | 182° |
| 2026-04-29 13:24 | 59.20650 | 10.34173 | 37476 ft | 503 kts | 182° |
| 2026-04-29 13:24 | 59.13655 | 10.33523 | 37468 ft | 502 kts | 182° |
| 2026-04-29 13:25 | 59.06677 | 10.32880 | 37454 ft | 502 kts | 182° |